createdAt,value
2018-10-21T00:00:21.907Z,102565.13
2018-10-21T00:02:50.102Z,102558.36
2018-10-21T00:05:18.258Z,102559.53
2018-10-21T00:07:46.446Z,102556.03
2018-10-21T00:10:14.647Z,102555.33
2018-10-21T00:12:42.850Z,102556.66
2018-10-21T00:15:11.474Z,102547.80
2018-10-21T00:17:39.595Z,102552.77
2018-10-21T00:20:08.342Z,102547.56
2018-10-21T00:22:36.522Z,102549.47
2018-10-21T00:25:05.703Z,102554.36
2018-10-21T00:27:33.887Z,102558.71
2018-10-21T00:30:02.044Z,102551.72
2018-10-21T00:32:35.517Z,102555.30
2018-10-21T00:35:03.703Z,102553.97
2018-10-21T00:37:31.891Z,102553.42
2018-10-21T00:40:00.095Z,102546.05
2018-10-21T00:42:28.242Z,102549.23
2018-10-21T00:44:56.466Z,102546.75
2018-10-21T00:47:24.626Z,102549.23
2018-10-21T00:49:52.843Z,102550.82
2018-10-21T00:52:21.128Z,102560.61
2018-10-21T00:54:49.266Z,102558.05
2018-10-21T00:57:17.515Z,102561.70
2018-10-21T00:59:45.603Z,102557.50
2018-10-21T01:02:13.788Z,102561.08
2018-10-21T01:04:41.990Z,102561.00
2018-10-21T01:07:10.163Z,102561.46
2018-10-21T01:09:38.332Z,102562.04
2018-10-21T01:12:06.579Z,102557.97
2018-10-21T01:14:34.804Z,102559.20
2018-10-21T01:17:02.962Z,102559.20
2018-10-21T01:19:31.139Z,102553.00
2018-10-21T01:21:59.339Z,102550.20
2018-10-21T01:24:27.510Z,102554.94
2018-10-21T01:26:55.742Z,102558.91
2018-10-21T01:29:23.890Z,102552.30
2018-10-21T01:31:52.068Z,102557.50
2018-10-21T01:34:20.255Z,102555.72
2018-10-21T01:36:48.495Z,102557.58
2018-10-21T01:39:16.667Z,102558.52
2018-10-21T01:41:44.851Z,102554.70
2018-10-21T01:44:13.034Z,102556.88
2018-10-21T01:46:41.189Z,102558.52
2018-10-21T01:49:09.359Z,102566.44
2018-10-21T01:51:37.561Z,102564.34
2018-10-21T01:54:05.973Z,102572.80
2018-10-21T01:56:34.122Z,102567.13
2018-10-21T01:59:02.291Z,102563.64
2018-10-21T02:01:30.515Z,102565.03
2018-10-21T02:03:58.757Z,102563.36
2018-10-21T02:06:26.923Z,102564.83
2018-10-21T02:08:57.179Z,102562.73
2018-10-21T02:11:25.385Z,102564.20
2018-10-21T02:13:53.592Z,102571.42
2018-10-21T02:16:21.774Z,102565.47
2018-10-21T02:18:56.764Z,102564.15
2018-10-21T02:21:25.335Z,102566.40
2018-10-21T02:23:54.081Z,102562.91
2018-10-21T02:26:22.512Z,102561.20
2018-10-21T02:28:50.671Z,102559.95
2018-10-21T02:31:18.873Z,102565.16
2018-10-21T02:33:47.112Z,102560.73
2018-10-21T02:36:15.230Z,102554.13
2018-10-21T02:38:43.427Z,102561.27
2018-10-21T02:41:29.499Z,102561.42
2018-10-21T02:43:57.745Z,102563.75
2018-10-21T02:46:26.011Z,102558.62
2018-10-21T02:48:55.219Z,102551.73
2018-10-21T02:51:23.463Z,102550.95
2018-10-21T02:53:51.863Z,102547.00
2018-10-21T02:56:20.083Z,102540.86
2018-10-21T02:58:48.263Z,102545.13
2018-10-21T03:01:16.432Z,102544.28
2018-10-21T03:03:44.590Z,102544.97
2018-10-21T03:06:12.768Z,102540.77
2018-10-21T03:08:40.963Z,102543.09
2018-10-21T03:11:09.201Z,102543.09
2018-10-21T03:13:37.351Z,102543.09
2018-10-21T03:16:05.715Z,102542.08
2018-10-21T03:18:33.966Z,102538.52
2018-10-21T03:21:03.171Z,102534.95
2018-10-21T03:23:31.832Z,102535.41
2018-10-21T03:26:00.507Z,102533.55
2018-10-21T03:28:28.679Z,102525.25
2018-10-21T03:30:56.931Z,102524.33
2018-10-21T03:33:25.421Z,102519.05
2018-10-21T03:35:53.687Z,102521.14
2018-10-21T03:38:21.852Z,102525.49
2018-10-21T03:40:50.034Z,102521.92
2018-10-21T03:43:18.234Z,102522.31
2018-10-21T03:45:46.374Z,102522.70
2018-10-21T03:48:15.595Z,102522.31
2018-10-21T03:50:43.815Z,102518.36
2018-10-21T03:53:12.051Z,102524.10
2018-10-21T03:55:41.609Z,102520.61
2018-10-21T03:58:09.876Z,102521.53
2018-10-21T04:00:38.283Z,102517.58
2018-10-21T04:03:06.867Z,102510.98
2018-10-21T04:05:35.460Z,102513.08
2018-10-21T04:08:03.855Z,102520.61
2018-10-21T04:10:32.087Z,102517.04
2018-10-21T04:13:00.587Z,102512.16
2018-10-21T04:15:28.892Z,102515.26
2018-10-21T04:17:57.267Z,102518.89
2018-10-21T04:20:25.524Z,102515.48
2018-10-21T04:22:56.622Z,102511.67
2018-10-21T04:25:25.789Z,102507.11
2018-10-21T04:27:54.880Z,102507.41
2018-10-21T04:30:25.291Z,102506.62
2018-10-21T04:33:59.564Z,102500.96
2018-10-21T04:36:29.434Z,102492.52
2018-10-21T04:40:08.860Z,102487.77
2018-10-21T04:42:37.082Z,102485.99
2018-10-21T04:45:06.029Z,102490.56
2018-10-21T04:47:34.276Z,102488.39
2018-10-21T04:50:02.542Z,102492.05
2018-10-21T04:52:31.571Z,102494.84
2018-10-21T04:55:06.420Z,102486.19
2018-10-21T04:57:35.435Z,102488.90
2018-10-21T05:00:04.019Z,102482.84
2018-10-21T05:02:32.600Z,102486.41
2018-10-21T05:05:00.966Z,102485.09
2018-10-21T05:07:29.205Z,102480.28
2018-10-21T05:09:57.436Z,102478.18
2018-10-21T05:12:25.577Z,102480.28
2018-10-21T05:14:53.730Z,102482.91
2018-10-21T05:17:21.911Z,102482.91
2018-10-21T05:19:50.152Z,102476.72
2018-10-21T05:22:18.345Z,102474.08
2018-10-21T05:24:46.548Z,102475.40
2018-10-21T05:27:14.755Z,102483.91
2018-10-21T05:29:43.005Z,102479.75
2018-10-21T05:32:11.239Z,102476.19
2018-10-21T05:34:39.483Z,102480.67
2018-10-21T05:37:07.690Z,102481.45
2018-10-21T05:39:35.908Z,102482.77
2018-10-21T05:42:04.132Z,102485.62
2018-10-21T05:44:32.339Z,102488.66
2018-10-21T05:47:00.611Z,102487.34
2018-10-21T05:49:28.780Z,102489.30
2018-10-21T05:51:56.999Z,102491.61
2018-10-21T05:54:25.111Z,102492.90
2018-10-21T05:56:53.372Z,102489.19
2018-10-21T05:59:21.564Z,102493.05
2018-10-21T06:01:49.757Z,102486.95
2018-10-21T06:04:18.506Z,102488.02
2018-10-21T06:06:46.612Z,102479.19
2018-10-21T06:09:15.310Z,102482.21
2018-10-21T06:11:43.505Z,102483.53
2018-10-21T06:14:11.699Z,102483.20
2018-10-21T06:16:46.398Z,102490.41
2018-10-21T06:19:19.259Z,102492.39
2018-10-21T06:21:47.453Z,102491.25
2018-10-21T06:24:15.603Z,102492.56
2018-10-21T06:26:43.770Z,102487.83
2018-10-21T06:29:11.926Z,102499.30
2018-10-21T06:31:40.114Z,102497.52
2018-10-21T06:34:08.514Z,102502.86
2018-10-21T06:36:36.776Z,102501.79
2018-10-21T06:39:05.904Z,102500.23
2018-10-21T06:41:34.026Z,102500.55
2018-10-21T06:44:02.222Z,102496.92
2018-10-21T06:46:30.498Z,102502.52
2018-10-21T06:48:58.866Z,102505.08
2018-10-21T06:51:27.064Z,102503.69
2018-10-21T06:53:55.221Z,102504.08
2018-10-21T06:56:23.390Z,102506.79
2018-10-21T06:58:51.537Z,102502.38
2018-10-21T07:01:19.685Z,102506.86
2018-10-21T07:03:47.843Z,102504.62
2018-10-21T07:06:18.047Z,102510.17
2018-10-21T07:08:46.724Z,102515.77
2018-10-21T07:11:15.099Z,102520.36
2018-10-21T07:13:43.299Z,102524.86
2018-10-21T07:16:11.798Z,102523.53
2018-10-21T07:18:40.427Z,102524.46
2018-10-21T07:21:08.624Z,102523.92
2018-10-21T07:23:36.870Z,102532.09
2018-10-21T07:26:05.454Z,102529.98
2018-10-21T07:28:33.748Z,102541.10
2018-10-21T07:31:01.950Z,102546.48
2018-10-21T07:33:30.208Z,102541.31
2018-10-21T07:35:58.688Z,102547.04
2018-10-21T07:38:26.839Z,102545.89
2018-10-21T07:40:55.341Z,102536.59
2018-10-21T07:43:23.559Z,102540.39
2018-10-21T07:45:51.742Z,102545.91
2018-10-21T07:48:19.920Z,102545.73
2018-10-21T07:50:48.072Z,102552.19
2018-10-21T07:53:16.267Z,102552.96
2018-10-21T07:55:44.560Z,102553.59
2018-10-21T07:58:13.023Z,102551.55
2018-10-21T08:00:41.107Z,102551.80
2018-10-21T08:03:09.544Z,102549.39
2018-10-21T08:05:49.266Z,102551.30
2018-10-21T08:08:19.471Z,102544.95
2018-10-21T08:10:47.685Z,102547.28
2018-10-21T08:13:17.122Z,102544.30
2018-10-21T08:15:45.528Z,102538.86
2018-10-21T08:18:14.322Z,102547.02
2018-10-21T08:20:43.614Z,102537.23
2018-10-21T08:23:13.029Z,102543.48
2018-10-21T08:25:41.698Z,102537.11
2018-10-21T08:28:10.009Z,102532.53
2018-10-21T08:30:38.135Z,102528.33
2018-10-21T08:33:06.875Z,102525.88
2018-10-21T08:35:35.175Z,102530.08
2018-10-21T08:38:03.408Z,102523.23
2018-10-21T08:40:31.682Z,102530.53
2018-10-21T08:42:59.819Z,102530.25
2018-10-21T08:45:27.979Z,102528.22
2018-10-21T08:47:56.130Z,102531.09
2018-10-21T08:50:24.319Z,102529.95
2018-10-21T08:52:52.523Z,102530.95
2018-10-21T08:55:20.773Z,102525.42
2018-10-21T08:57:48.927Z,102529.61
2018-10-21T09:00:18.984Z,102527.73
2018-10-21T09:02:47.374Z,102530.98
2018-10-21T09:05:17.022Z,102524.52
2018-10-21T09:07:45.466Z,102524.14
2018-10-21T09:10:14.902Z,102515.88
2018-10-21T09:12:43.187Z,102516.73
2018-10-21T09:15:15.305Z,102512.27
2018-10-21T09:17:43.431Z,102516.23
2018-10-21T09:20:13.689Z,102516.19
2018-10-21T09:22:41.889Z,102518.28
2018-10-21T09:25:10.909Z,102514.99
2018-10-21T09:27:39.882Z,102521.08
2018-10-21T09:30:09.504Z,102514.77
2018-10-21T09:32:37.739Z,102515.63
2018-10-21T09:35:07.360Z,102514.80
2018-10-21T09:37:38.609Z,102512.62
2018-10-21T09:40:14.949Z,102512.81
2018-10-21T09:42:43.997Z,102505.03
2018-10-21T09:45:14.691Z,102507.84
2018-10-21T09:47:43.534Z,102509.44
2018-10-21T09:50:12.066Z,102494.63
2018-10-21T09:52:40.265Z,102496.56
2018-10-21T09:55:14.499Z,102498.53
2018-10-21T09:57:42.707Z,102492.13
2018-10-21T10:00:26.311Z,102487.52
2018-10-21T10:03:03.100Z,102490.09
2018-10-21T10:05:31.240Z,102485.54
2018-10-21T10:07:59.476Z,102483.20
2018-10-21T10:10:27.693Z,102480.98
2018-10-21T10:12:55.975Z,102483.00
2018-10-21T10:15:24.150Z,102475.36
2018-10-21T10:17:52.420Z,102470.45
2018-10-21T10:20:20.668Z,102469.45
2018-10-21T10:22:48.830Z,102465.77
2018-10-21T10:25:17.042Z,102463.43
2018-10-21T10:27:45.184Z,102462.77
2018-10-21T10:30:13.677Z,102458.95
2018-10-21T10:32:43.067Z,102468.47
2018-10-21T10:35:12.208Z,102465.34
2018-10-21T10:37:40.643Z,102458.63
2018-10-21T10:40:09.912Z,102459.57
2018-10-21T10:42:38.071Z,102454.92
2018-10-21T10:45:06.982Z,102452.53
2018-10-21T10:47:35.269Z,102451.97
2018-10-21T10:50:03.483Z,102452.61
2018-10-21T10:52:31.652Z,102448.39
2018-10-21T10:54:59.933Z,102446.13
2018-10-21T10:57:28.070Z,102449.55
2018-10-21T10:59:56.376Z,102441.34
2018-10-21T11:02:24.705Z,102437.84
2018-10-21T11:04:52.910Z,102434.33
2018-10-21T11:07:21.193Z,102433.50
2018-10-21T11:09:49.394Z,102427.69
2018-10-21T11:12:17.601Z,102420.77
2018-10-21T11:14:45.831Z,102421.23
2018-10-21T11:17:13.984Z,102413.00
2018-10-21T11:19:44.119Z,102412.39
2018-10-21T11:22:12.328Z,102406.05
2018-10-21T11:24:45.976Z,102406.16
2018-10-21T11:27:14.452Z,102409.39
2018-10-21T11:29:42.652Z,102399.82
2018-10-21T11:32:10.792Z,102399.78
2018-10-21T11:34:39.295Z,102396.27
2018-10-21T11:37:07.653Z,102394.31
2018-10-21T11:39:35.709Z,102391.98
2018-10-21T11:42:04.041Z,102396.58
2018-10-21T11:44:32.563Z,102391.47
2018-10-21T11:47:00.718Z,102391.73
2018-10-21T11:49:28.898Z,102378.42
2018-10-21T11:51:57.077Z,102378.42
2018-10-21T11:54:25.654Z,102379.39
2018-10-21T11:56:53.839Z,102369.78
2018-10-21T11:59:22.027Z,102358.66
2018-10-21T12:01:50.236Z,102354.67
2018-10-21T12:04:18.525Z,102352.38
2018-10-21T12:06:46.871Z,102352.98
2018-10-21T12:09:16.152Z,102344.52
2018-10-21T12:11:44.318Z,102336.65
2018-10-21T12:14:12.496Z,102339.30
2018-10-21T12:16:40.769Z,102336.65
2018-10-21T12:19:08.976Z,102333.98
2018-10-21T12:21:37.147Z,102332.66
2018-10-21T12:24:05.496Z,102326.48
2018-10-21T12:26:33.693Z,102325.53
2018-10-21T12:29:01.936Z,102321.05
2018-10-21T12:31:30.031Z,102315.14
2018-10-21T12:33:58.292Z,102319.53
2018-10-21T12:36:26.367Z,102317.24
2018-10-21T12:38:54.595Z,102310.96
2018-10-21T12:41:22.860Z,102310.11
2018-10-21T12:43:51.019Z,102313.00
2018-10-21T12:46:19.279Z,102312.03
2018-10-21T12:48:47.477Z,102306.23
2018-10-21T12:51:15.700Z,102306.59
2018-10-21T12:53:44.178Z,102304.67
2018-10-21T12:56:12.327Z,102305.89
2018-10-21T12:58:40.677Z,102304.45
2018-10-21T13:01:09.400Z,102302.52
2018-10-21T13:03:37.538Z,102296.72
2018-10-21T13:06:05.828Z,102294.80
2018-10-21T13:08:34.013Z,102290.18
2018-10-21T13:11:02.494Z,102296.12
2018-10-21T13:13:30.817Z,102294.20
2018-10-21T13:15:58.978Z,102290.45
2018-10-21T13:18:27.147Z,102295.44
2018-10-21T13:20:55.388Z,102288.91
2018-10-21T13:23:23.591Z,102286.12
2018-10-21T13:25:51.752Z,102282.39
2018-10-21T13:28:20.072Z,102280.34
2018-10-21T13:30:48.210Z,102281.19
2018-10-21T13:33:16.437Z,102278.89
2018-10-21T13:35:44.682Z,102272.10
2018-10-21T13:38:12.974Z,102270.52
2018-10-21T13:40:41.407Z,102267.61
2018-10-21T13:43:09.597Z,102263.25
2018-10-21T13:45:37.821Z,102264.84
2018-10-21T13:48:06.125Z,102263.77
2018-10-21T13:50:34.579Z,102261.09
2018-10-21T13:53:02.966Z,102255.89
2018-10-21T13:55:31.098Z,102255.89
2018-10-21T13:57:59.325Z,102248.63
2018-10-21T14:00:27.564Z,102248.25
2018-10-21T14:02:55.735Z,102245.59
2018-10-21T14:05:24.341Z,102254.77
2018-10-21T14:07:52.579Z,102252.47
2018-10-21T14:10:20.816Z,102242.45
2018-10-21T14:12:49.383Z,102246.18
2018-10-21T14:15:17.653Z,102236.86
2018-10-21T14:17:46.043Z,102240.61
2018-10-21T14:20:14.335Z,102234.20
2018-10-21T14:22:42.519Z,102234.55
2018-10-21T14:25:10.774Z,102234.19
2018-10-21T14:27:39.000Z,102226.11
2018-10-21T14:30:09.016Z,102222.72
2018-10-21T14:32:37.530Z,102224.50
2018-10-21T14:35:07.982Z,102228.75
2018-10-21T14:37:36.540Z,102222.30
2018-10-21T14:40:05.055Z,102219.03
2018-10-21T14:42:33.258Z,102209.95
2018-10-21T14:45:01.494Z,102202.84
2018-10-21T14:47:29.755Z,102198.12
2018-10-21T14:49:57.951Z,102193.64
2018-10-21T14:52:26.188Z,102195.81
2018-10-21T14:54:54.470Z,102191.45
2018-10-21T14:57:22.696Z,102188.27
2018-10-21T14:59:51.066Z,102189.23
2018-10-21T15:02:19.336Z,102185.52
2018-10-21T15:04:47.535Z,102178.09
2018-10-21T15:07:15.792Z,102184.06
2018-10-21T15:09:44.022Z,102182.22
2018-10-21T15:12:12.405Z,102172.29
2018-10-21T15:14:40.560Z,102176.92
2018-10-21T15:17:08.782Z,102173.42
2018-10-21T15:19:37.102Z,102171.27
2018-10-21T15:22:06.232Z,102171.63
2018-10-21T15:24:34.810Z,102167.15
2018-10-21T15:27:03.043Z,102165.24
2018-10-21T15:29:31.283Z,102166.33
2018-10-21T15:31:59.627Z,102165.72
2018-10-21T15:34:27.905Z,102160.64
2018-10-21T15:36:56.219Z,102160.03
2018-10-21T15:39:24.432Z,102154.61
2018-10-21T15:41:52.693Z,102159.81
2018-10-21T15:44:21.219Z,102160.89
2018-10-21T15:46:49.456Z,102153.63
2018-10-21T15:49:17.650Z,102160.19
2018-10-21T15:51:45.881Z,102163.69
2018-10-21T15:54:14.056Z,102162.23
2018-10-21T15:56:42.307Z,102157.77
2018-10-21T15:59:10.547Z,102153.65
2018-10-21T16:01:38.708Z,102157.88
2018-10-21T16:04:06.941Z,102156.78
2018-10-21T16:06:35.136Z,102152.80
2018-10-21T16:09:03.517Z,102152.16
2018-10-21T16:11:31.933Z,102151.66
2018-10-21T16:14:00.203Z,102149.02
2018-10-21T16:16:28.349Z,102151.28
2018-10-21T16:18:56.580Z,102150.78
2018-10-21T16:21:24.775Z,102147.65
2018-10-21T16:23:52.971Z,102151.13
2018-10-21T16:26:21.180Z,102147.23
2018-10-21T16:28:49.341Z,102151.34
2018-10-21T16:31:17.516Z,102153.59
2018-10-21T16:33:45.699Z,102152.86
2018-10-21T16:36:13.892Z,102149.92
2018-10-21T16:38:42.061Z,102158.37
2018-10-21T16:41:10.211Z,102153.87
2018-10-21T16:43:38.401Z,102154.34
2018-10-21T16:46:06.661Z,102157.81
2018-10-21T16:48:34.884Z,102151.61
2018-10-21T16:51:03.220Z,102150.75
2018-10-21T16:53:31.403Z,102149.49
2018-10-21T16:55:59.563Z,102147.61
2018-10-21T16:58:27.783Z,102145.80
2018-10-21T17:00:56.191Z,102153.34
2018-10-21T17:03:24.240Z,102154.65
2018-10-21T17:05:52.345Z,102150.98
2018-10-21T17:08:20.523Z,102151.58
2018-10-21T17:10:48.749Z,102148.66
2018-10-21T17:13:17.008Z,102156.63
2018-10-21T17:15:45.136Z,102157.79
2018-10-21T17:18:13.315Z,102164.67
2018-10-21T17:20:41.461Z,102162.81
2018-10-21T17:23:09.679Z,102163.23
2018-10-21T17:25:37.963Z,102164.05
2018-10-21T17:28:06.310Z,102163.52
2018-10-21T17:30:34.441Z,102162.51
2018-10-21T17:33:02.619Z,102167.55
2018-10-21T17:35:30.834Z,102164.31
2018-10-21T17:37:59.032Z,102162.41
2018-10-21T17:40:27.246Z,102167.34
2018-10-21T17:42:55.482Z,102176.73
2018-10-21T17:45:23.670Z,102173.09
2018-10-21T17:47:51.863Z,102175.84
2018-10-21T17:50:20.128Z,102168.95
2018-10-21T17:52:48.267Z,102177.59
2018-10-21T17:55:23.199Z,102176.56
2018-10-21T17:57:51.371Z,102171.34
2018-10-21T18:00:19.597Z,102170.86
2018-10-21T18:02:47.787Z,102179.66
2018-10-21T18:05:15.970Z,102174.36
2018-10-21T18:07:44.483Z,102183.64
2018-10-21T18:10:12.959Z,102181.20
2018-10-21T18:12:41.177Z,102182.93
2018-10-21T18:15:10.107Z,102183.73
2018-10-21T18:17:39.158Z,102179.13
2018-10-21T18:20:08.371Z,102188.88
2018-10-21T18:22:36.542Z,102188.50
2018-10-21T18:25:04.938Z,102188.02
2018-10-21T18:27:33.099Z,102190.95
2018-10-21T18:30:01.305Z,102187.82
2018-10-21T18:32:29.482Z,102185.92
2018-10-21T18:34:57.670Z,102186.87
2018-10-21T18:37:25.839Z,102186.87
2018-10-21T18:39:54.092Z,102178.91
2018-10-21T18:42:22.338Z,102180.72
2018-10-21T18:44:50.502Z,102184.97
2018-10-21T18:47:18.679Z,102182.21
2018-10-21T18:49:46.887Z,102181.73
2018-10-21T18:52:15.714Z,102186.66
2018-10-21T18:54:43.879Z,102186.66
2018-10-21T18:57:12.358Z,102180.04
2018-10-21T18:59:40.527Z,102181.47
2018-10-21T19:02:08.906Z,102186.02
2018-10-21T19:04:37.108Z,102183.95
2018-10-21T19:07:05.828Z,102185.47
2018-10-21T19:09:33.922Z,102183.02
2018-10-21T19:12:02.143Z,102179.28
2018-10-21T19:14:30.322Z,102186.11
2018-10-21T19:16:58.499Z,102174.38
2018-10-21T19:19:26.720Z,102181.95
2018-10-21T19:21:54.904Z,102180.73
2018-10-21T19:24:23.087Z,102179.89
2018-10-21T19:26:51.259Z,102176.39
2018-10-21T19:29:19.409Z,102180.83
2018-10-21T19:31:47.585Z,102182.53
2018-10-21T19:34:15.796Z,102180.73
2018-10-21T19:36:43.915Z,102179.52
2018-10-21T19:39:13.104Z,102174.21
2018-10-21T19:41:41.388Z,102168.06
2018-10-21T19:44:10.779Z,102169.08
2018-10-21T19:46:39.559Z,102169.31
2018-10-21T19:49:08.382Z,102162.79
2018-10-21T19:51:36.523Z,102164.31
2018-10-21T19:54:05.060Z,102168.59
2018-10-21T19:56:33.211Z,102167.69
2018-10-21T19:59:03.108Z,102168.73
2018-10-21T20:01:31.254Z,102163.16
2018-10-21T20:03:59.473Z,102162.79
2018-10-21T20:06:27.618Z,102162.23
2018-10-21T20:08:55.779Z,102166.63
2018-10-21T20:11:23.921Z,102171.75
2018-10-21T20:13:52.159Z,102172.89
2018-10-21T20:16:20.731Z,102177.66
2018-10-21T20:18:48.910Z,102178.99
2018-10-21T20:21:17.092Z,102185.33
2018-10-21T20:23:45.267Z,102188.55
2018-10-21T20:26:13.445Z,102184.89
2018-10-21T20:28:41.602Z,102186.03
2018-10-21T20:31:09.844Z,102177.15
2018-10-21T20:33:37.986Z,102174.34
2018-10-21T20:36:06.094Z,102177.09
2018-10-21T20:38:34.234Z,102173.78
2018-10-21T20:41:02.417Z,102183.80
2018-10-21T20:43:30.570Z,102180.23
2018-10-21T20:45:58.731Z,102186.00
2018-10-21T20:48:26.858Z,102185.44
2018-10-21T20:50:55.044Z,102195.92
2018-10-21T20:53:23.238Z,102197.97
2018-10-21T20:55:51.410Z,102198.19
2018-10-21T20:58:19.608Z,102201.78
2018-10-21T21:00:47.788Z,102202.53
2018-10-21T21:03:15.952Z,102204.31
2018-10-21T21:05:44.124Z,102209.53
2018-10-21T21:08:12.302Z,102213.13
2018-10-21T21:10:40.552Z,102212.18
2018-10-21T21:13:08.811Z,102210.48
2018-10-21T21:15:37.004Z,102209.06
2018-10-21T21:18:05.451Z,102208.41
2018-10-21T21:20:33.645Z,102212.53
2018-10-21T21:23:01.819Z,102217.73
2018-10-21T21:25:29.973Z,102219.81
2018-10-21T21:27:58.247Z,102216.13
2018-10-21T21:30:26.421Z,102212.75
2018-10-21T21:32:54.980Z,102218.98
2018-10-21T21:35:23.368Z,102215.40
2018-10-21T21:37:51.543Z,102222.58
2018-10-21T21:40:20.131Z,102222.20
2018-10-21T21:42:48.734Z,102225.78
2018-10-21T21:45:17.147Z,102223.41
2018-10-21T21:47:45.323Z,102224.06
2018-10-21T21:50:13.487Z,102223.69
2018-10-21T21:52:41.640Z,102225.01
2018-10-21T21:55:09.910Z,102218.48
2018-10-21T21:57:38.095Z,102223.22
2018-10-21T22:00:09.275Z,102225.86
2018-10-21T22:02:37.456Z,102228.41
2018-10-21T22:05:07.283Z,102229.94
2018-10-21T22:07:35.704Z,102228.61
2018-10-21T22:10:04.069Z,102225.41
2018-10-21T22:12:32.192Z,102225.78
2018-10-21T22:15:00.434Z,102220.50
2018-10-21T22:17:28.623Z,102218.41
2018-10-21T22:19:56.888Z,102223.03
2018-10-21T22:22:25.035Z,102221.05
2018-10-21T22:24:53.214Z,102221.05
2018-10-21T22:27:21.373Z,102223.69
2018-10-21T22:29:49.548Z,102221.80
2018-10-21T22:32:17.738Z,102224.83
2018-10-21T22:34:45.923Z,102223.50
2018-10-21T22:37:14.080Z,102221.33
2018-10-21T22:39:42.375Z,102218.02
2018-10-21T22:42:10.633Z,102214.83
2018-10-21T22:44:38.746Z,102214.62
2018-10-21T22:47:06.895Z,102213.20
2018-10-21T22:49:35.037Z,102210.06
2018-10-21T22:52:03.277Z,102209.48
2018-10-21T22:54:31.366Z,102204.46
2018-10-21T22:56:59.506Z,102211.20
2018-10-21T22:59:27.651Z,102215.41
2018-10-21T23:01:55.807Z,102205.70
2018-10-21T23:04:24.015Z,102205.13
2018-10-21T23:06:52.199Z,102215.53
2018-10-21T23:09:20.325Z,102208.92
2018-10-21T23:11:48.529Z,102213.36
2018-10-21T23:14:16.642Z,102212.69
2018-10-21T23:16:44.846Z,102214.56
2018-10-21T23:19:24.387Z,102216.83
2018-10-21T23:21:52.553Z,102218.74
2018-10-21T23:24:20.776Z,102222.11
2018-10-21T23:26:48.880Z,102218.36
2018-10-21T23:29:17.059Z,102223.62
2018-10-21T23:31:45.214Z,102229.64
2018-10-21T23:34:13.451Z,102220.01
2018-10-21T23:36:41.584Z,102221.89
2018-10-21T23:39:09.812Z,102225.43
2018-10-21T23:41:37.946Z,102229.56
2018-10-21T23:44:06.106Z,102228.71
2018-10-21T23:46:34.284Z,102228.16
2018-10-21T23:49:03.763Z,102233.35
2018-10-21T23:51:31.934Z,102231.09
2018-10-21T23:54:00.085Z,102230.41
2018-10-21T23:56:28.277Z,102224.57
2018-10-21T23:58:56.444Z,102223.89
